sensor_id;sensor_type;location;lat;lon;timestamp;temperature;humidity
64869;DHT22;51349;52.424;10.840;2022-08-04T00:04:03;20.20;99.90
64869;DHT22;51349;52.424;10.840;2022-08-04T00:14:37;20.20;99.90
64869;DHT22;51349;52.424;10.840;2022-08-04T00:19:43;20.10;99.90
64869;DHT22;51349;52.424;10.840;2022-08-04T00:24:43;20.10;99.90
64869;DHT22;51349;52.424;10.840;2022-08-04T00:29:46;20.10;99.90
64869;DHT22;51349;52.424;10.840;2022-08-04T00:34:47;20.00;99.90
64869;DHT22;51349;52.424;10.840;2022-08-04T00:39:48;19.90;99.90
64869;DHT22;51349;52.424;10.840;2022-08-04T00:50:20;19.80;99.90
64869;DHT22;51349;52.424;10.840;2022-08-04T01:01:01;19.60;99.90
64869;DHT22;51349;52.424;10.840;2022-08-04T01:06:32;19.50;99.90
64869;DHT22;51349;52.424;10.840;2022-08-04T01:16:59;19.40;99.90
64869;DHT22;51349;52.424;10.840;2022-08-04T01:32:59;19.20;99.90
64869;DHT22;51349;52.424;10.840;2022-08-04T01:38:12;19.10;99.90
64869;DHT22;51349;52.424;10.840;2022-08-04T01:43:16;19.10;99.90
64869;DHT22;51349;52.424;10.840;2022-08-04T01:48:22;19.00;99.90
64869;DHT22;51349;52.424;10.840;2022-08-04T01:53:30;19.00;99.90
64869;DHT22;51349;52.424;10.840;2022-08-04T01:58:33;18.80;99.90
64869;DHT22;51349;52.424;10.840;2022-08-04T02:03:39;18.70;99.90
64869;DHT22;51349;52.424;10.840;2022-08-04T02:19:29;18.60;99.90
64869;DHT22;51349;52.424;10.840;2022-08-04T02:24:31;18.50;99.90
64869;DHT22;51349;52.424;10.840;2022-08-04T02:34:54;18.40;99.90
64869;DHT22;51349;52.424;10.840;2022-08-04T02:39:58;18.40;99.90
64869;DHT22;51349;52.424;10.840;2022-08-04T02:45:17;18.30;99.90
64869;DHT22;51349;52.424;10.840;2022-08-04T02:50:19;18.20;99.90
64869;DHT22;51349;52.424;10.840;2022-08-04T02:55:21;18.20;99.90
64869;DHT22;51349;52.424;10.840;2022-08-04T03:00:23;18.00;99.90
64869;DHT22;51349;52.424;10.840;2022-08-04T03:48:11;17.90;99.90
64869;DHT22;51349;52.424;10.840;2022-08-04T04:04:39;17.80;99.90
64869;DHT22;51349;52.424;10.840;2022-08-04T04:20:50;17.80;99.90
64869;DHT22;51349;52.424;10.840;2022-08-04T04:42:46;17.80;99.90
64869;DHT22;51349;52.424;10.840;2022-08-04T04:53:41;17.70;99.90
64869;DHT22;51349;52.424;10.840;2022-08-04T04:58:46;17.80;99.90
64869;DHT22;51349;52.424;10.840;2022-08-04T05:09:15;18.00;99.90
64869;DHT22;51349;52.424;10.840;2022-08-04T05:14:32;18.10;99.90
64869;DHT22;51349;52.424;10.840;2022-08-04T05:25:04;18.40;99.90
64869;DHT22;51349;52.424;10.840;2022-08-04T05:30:06;18.50;99.90
64869;DHT22;51349;52.424;10.840;2022-08-04T05:35:10;18.70;99.90
64869;DHT22;51349;52.424;10.840;2022-08-04T05:40:12;18.90;99.90
64869;DHT22;51349;52.424;10.840;2022-08-04T05:45:14;19.00;99.90
64869;DHT22;51349;52.424;10.840;2022-08-04T05:50:18;19.20;99.90
64869;DHT22;51349;52.424;10.840;2022-08-04T05:55:20;19.40;99.90
64869;DHT22;51349;52.424;10.840;2022-08-04T06:00:23;19.70;99.90
64869;DHT22;51349;52.424;10.840;2022-08-04T06:05:27;20.00;99.90
64869;DHT22;51349;52.424;10.840;2022-08-04T06:10:33;20.20;99.90
64869;DHT22;51349;52.424;10.840;2022-08-04T06:15:40;20.60;99.90
64869;DHT22;51349;52.424;10.840;2022-08-04T06:20:56;21.00;99.90
64869;DHT22;51349;52.424;10.840;2022-08-04T06:26:02;21.30;99.90
64869;DHT22;51349;52.424;10.840;2022-08-04T06:31:08;21.60;99.90
64869;DHT22;51349;52.424;10.840;2022-08-04T06:36:23;22.20;99.90
64869;DHT22;51349;52.424;10.840;2022-08-04T06:41:43;22.70;99.90
64869;DHT22;51349;52.424;10.840;2022-08-04T06:47:20;23.10;99.90
64869;DHT22;51349;52.424;10.840;2022-08-04T06:52:21;23.90;99.90
64869;DHT22;51349;52.424;10.840;2022-08-04T06:57:33;23.90;99.90
64869;DHT22;51349;52.424;10.840;2022-08-04T07:02:43;23.90;99.90
64869;DHT22;51349;52.424;10.840;2022-08-04T07:07:59;24.20;99.90
64869;DHT22;51349;52.424;10.840;2022-08-04T07:13:04;24.80;99.90
64869;DHT22;51349;52.424;10.840;2022-08-04T07:18:08;25.00;99.90
64869;DHT22;51349;52.424;10.840;2022-08-04T07:23:11;25.60;99.90
64869;DHT22;51349;52.424;10.840;2022-08-04T07:28:16;26.10;99.90
64869;DHT22;51349;52.424;10.840;2022-08-04T07:33:18;27.00;94.80
64869;DHT22;51349;52.424;10.840;2022-08-04T07:38:19;27.70;94.30
64869;DHT22;51349;52.424;10.840;2022-08-04T07:43:20;28.30;93.60
64869;DHT22;51349;52.424;10.840;2022-08-04T07:48:21;28.70;93.10
64869;DHT22;51349;52.424;10.840;2022-08-04T07:59:13;29.80;89.80
64869;DHT22;51349;52.424;10.840;2022-08-04T08:04:14;30.60;86.10
64869;DHT22;51349;52.424;10.840;2022-08-04T08:09:17;31.20;74.50
64869;DHT22;51349;52.424;10.840;2022-08-04T08:14:21;31.80;73.70
64869;DHT22;51349;52.424;10.840;2022-08-04T08:19:22;32.50;69.40
64869;DHT22;51349;52.424;10.840;2022-08-04T08:24:30;33.20;64.40
64869;DHT22;51349;52.424;10.840;2022-08-04T08:29:33;33.50;61.60
64869;DHT22;51349;52.424;10.840;2022-08-04T08:34:38;33.80;59.10
64869;DHT22;51349;52.424;10.840;2022-08-04T08:39:44;34.30;58.60
64869;DHT22;51349;52.424;10.840;2022-08-04T09:12:55;35.30;53.90
64869;DHT22;51349;52.424;10.840;2022-08-04T09:28:55;36.30;53.10
64869;DHT22;51349;52.424;10.840;2022-08-04T09:34:09;36.40;52.10
64869;DHT22;51349;52.424;10.840;2022-08-04T09:39:25;36.40;51.50
64869;DHT22;51349;52.424;10.840;2022-08-04T09:44:53;36.70;53.20
64869;DHT22;51349;52.424;10.840;2022-08-04T09:50:01;37.00;50.20
64869;DHT22;51349;52.424;10.840;2022-08-04T10:00:33;36.90;51.40
64869;DHT22;51349;52.424;10.840;2022-08-04T10:28:24;37.50;48.00
64869;DHT22;51349;52.424;10.840;2022-08-04T10:39:13;37.60;49.20
64869;DHT22;51349;52.424;10.840;2022-08-04T10:49:45;37.20;48.00
64869;DHT22;51349;52.424;10.840;2022-08-04T10:54:53;37.30;48.30
64869;DHT22;51349;52.424;10.840;2022-08-04T11:05:20;36.50;48.40
64869;DHT22;51349;52.424;10.840;2022-08-04T11:10:28;37.10;51.60
64869;DHT22;51349;52.424;10.840;2022-08-04T11:15:44;37.10;51.20
64869;DHT22;51349;52.424;10.840;2022-08-04T11:21:13;37.50;48.20
64869;DHT22;51349;52.424;10.840;2022-08-04T11:26:27;37.10;49.70
64869;DHT22;51349;52.424;10.840;2022-08-04T11:31:38;36.70;48.70
64869;DHT22;51349;52.424;10.840;2022-08-04T11:37:08;36.40;48.60
64869;DHT22;51349;52.424;10.840;2022-08-04T11:52:33;35.60;48.70
64869;DHT22;51349;52.424;10.840;2022-08-04T11:57:34;35.90;49.90
64869;DHT22;51349;52.424;10.840;2022-08-04T12:03:05;36.10;49.10
64869;DHT22;51349;52.424;10.840;2022-08-04T12:13:56;36.00;49.10
64869;DHT22;51349;52.424;10.840;2022-08-04T12:19:07;35.80;49.40
64869;DHT22;51349;52.424;10.840;2022-08-04T12:24:33;36.00;49.40
64869;DHT22;51349;52.424;10.840;2022-08-04T12:29:35;36.10;48.60
64869;DHT22;51349;52.424;10.840;2022-08-04T12:34:45;36.00;50.20
64869;DHT22;51349;52.424;10.840;2022-08-04T12:39:51;36.30;48.40
64869;DHT22;51349;52.424;10.840;2022-08-04T12:44:52;36.60;49.10
64869;DHT22;51349;52.424;10.840;2022-08-04T12:50:01;36.50;49.70
64869;DHT22;51349;52.424;10.840;2022-08-04T12:55:04;36.40;48.80
64869;DHT22;51349;52.424;10.840;2022-08-04T13:00:06;36.40;49.10
64869;DHT22;51349;52.424;10.840;2022-08-04T13:05:08;36.60;49.30
64869;DHT22;51349;52.424;10.840;2022-08-04T13:10:16;36.30;48.60
64869;DHT22;51349;52.424;10.840;2022-08-04T13:15:20;36.40;48.70
64869;DHT22;51349;52.424;10.840;2022-08-04T13:20:32;36.60;49.60
64869;DHT22;51349;52.424;10.840;2022-08-04T13:25:36;36.60;48.70
64869;DHT22;51349;52.424;10.840;2022-08-04T13:30:39;36.30;48.40
64869;DHT22;51349;52.424;10.840;2022-08-04T13:35:44;36.60;49.10
64869;DHT22;51349;52.424;10.840;2022-08-04T13:40:46;36.70;49.40
64869;DHT22;51349;52.424;10.840;2022-08-04T13:45:49;36.90;47.80
64869;DHT22;51349;52.424;10.840;2022-08-04T13:50:52;36.80;48.20
64869;DHT22;51349;52.424;10.840;2022-08-04T13:55:55;36.10;48.00
64869;DHT22;51349;52.424;10.840;2022-08-04T14:01:09;35.80;49.20
64869;DHT22;51349;52.424;10.840;2022-08-04T14:11:31;36.50;48.50
64869;DHT22;51349;52.424;10.840;2022-08-04T14:16:33;36.60;48.70
64869;DHT22;51349;52.424;10.840;2022-08-04T14:21:35;36.50;48.50
64869;DHT22;51349;52.424;10.840;2022-08-04T14:26:36;36.30;48.30
64869;DHT22;51349;52.424;10.840;2022-08-04T14:31:40;36.10;48.60
64869;DHT22;51349;52.424;10.840;2022-08-04T14:36:42;36.20;49.00
64869;DHT22;51349;52.424;10.840;2022-08-04T14:41:48;36.00;49.20
64869;DHT22;51349;52.424;10.840;2022-08-04T14:46:54;36.20;49.00
64869;DHT22;51349;52.424;10.840;2022-08-04T14:51:58;36.30;48.50
64869;DHT22;51349;52.424;10.840;2022-08-04T14:57:03;36.30;48.50
64869;DHT22;51349;52.424;10.840;2022-08-04T15:02:04;36.20;49.40
64869;DHT22;51349;52.424;10.840;2022-08-04T15:07:07;36.50;49.70
64869;DHT22;51349;52.424;10.840;2022-08-04T15:12:10;36.30;49.40
64869;DHT22;51349;52.424;10.840;2022-08-04T15:17:10;36.50;47.90
64869;DHT22;51349;52.424;10.840;2022-08-04T15:22:12;36.10;49.00
64869;DHT22;51349;52.424;10.840;2022-08-04T15:27:13;36.00;49.10
64869;DHT22;51349;52.424;10.840;2022-08-04T15:32:16;35.50;49.50
64869;DHT22;51349;52.424;10.840;2022-08-04T15:43:19;35.10;50.20
64869;DHT22;51349;52.424;10.840;2022-08-04T15:53:11;35.00;51.30
64869;DHT22;51349;52.424;10.840;2022-08-04T15:58:14;34.90;50.10
64869;DHT22;51349;52.424;10.840;2022-08-04T16:24:42;32.00;59.30
64869;DHT22;51349;52.424;10.840;2022-08-04T16:29:44;31.90;58.90
64869;DHT22;51349;52.424;10.840;2022-08-04T16:35:00;32.00;59.70
64869;DHT22;51349;52.424;10.840;2022-08-04T16:40:27;31.80;59.40
64869;DHT22;51349;52.424;10.840;2022-08-04T16:45:52;32.00;59.40
64869;DHT22;51349;52.424;10.840;2022-08-04T16:55:56;31.40;61.00
64869;DHT22;51349;52.424;10.840;2022-08-04T17:01:11;31.20;62.50
64869;DHT22;51349;52.424;10.840;2022-08-04T17:06:13;31.00;64.00
64869;DHT22;51349;52.424;10.840;2022-08-04T17:11:14;30.90;63.30
64869;DHT22;51349;52.424;10.840;2022-08-04T17:16:16;30.70;65.50
64869;DHT22;51349;52.424;10.840;2022-08-04T17:21:29;30.60;65.30
64869;DHT22;51349;52.424;10.840;2022-08-04T17:26:33;30.40;66.20
64869;DHT22;51349;52.424;10.840;2022-08-04T17:31:36;30.30;67.10
64869;DHT22;51349;52.424;10.840;2022-08-04T17:36:37;30.10;65.70
64869;DHT22;51349;52.424;10.840;2022-08-04T17:41:38;29.60;67.20
64869;DHT22;51349;52.424;10.840;2022-08-04T17:51:59;29.60;69.40
64869;DHT22;51349;52.424;10.840;2022-08-04T17:57:15;29.30;71.60
64869;DHT22;51349;52.424;10.840;2022-08-04T18:02:30;29.10;73.40
64869;DHT22;51349;52.424;10.840;2022-08-04T18:07:36;28.80;75.90
64869;DHT22;51349;52.424;10.840;2022-08-04T18:12:37;28.90;76.50
64869;DHT22;51349;52.424;10.840;2022-08-04T18:17:42;28.70;77.70
64869;DHT22;51349;52.424;10.840;2022-08-04T18:22:44;28.80;78.10
64869;DHT22;51349;52.424;10.840;2022-08-04T18:27:51;28.90;77.70
64869;DHT22;51349;52.424;10.840;2022-08-04T18:32:53;28.80;77.10
64869;DHT22;51349;52.424;10.840;2022-08-04T18:37:54;28.60;77.70
64869;DHT22;51349;52.424;10.840;2022-08-04T18:42:55;28.60;76.90
64869;DHT22;51349;52.424;10.840;2022-08-04T18:47:56;28.40;76.60
64869;DHT22;51349;52.424;10.840;2022-08-04T18:52:58;28.20;77.40
64869;DHT22;51349;52.424;10.840;2022-08-04T18:57:58;28.10;77.90
64869;DHT22;51349;52.424;10.840;2022-08-04T19:02:59;27.90;77.60
64869;DHT22;51349;52.424;10.840;2022-08-04T19:08:00;27.70;79.00
64869;DHT22;51349;52.424;10.840;2022-08-04T19:13:00;27.50;79.40
64869;DHT22;51349;52.424;10.840;2022-08-04T19:18:01;27.40;80.70
64869;DHT22;51349;52.424;10.840;2022-08-04T19:23:02;27.20;81.30
64869;DHT22;51349;52.424;10.840;2022-08-04T19:28:02;27.10;80.30
64869;DHT22;51349;52.424;10.840;2022-08-04T19:33:03;26.80;81.00
64869;DHT22;51349;52.424;10.840;2022-08-04T19:38:04;26.60;80.90
64869;DHT22;51349;52.424;10.840;2022-08-04T19:43:06;26.50;81.50
64869;DHT22;51349;52.424;10.840;2022-08-04T19:48:06;26.30;82.10
64869;DHT22;51349;52.424;10.840;2022-08-04T19:53:07;26.30;82.10
64869;DHT22;51349;52.424;10.840;2022-08-04T19:58:08;26.10;81.80
64869;DHT22;51349;52.424;10.840;2022-08-04T20:03:09;25.90;82.50
64869;DHT22;51349;52.424;10.840;2022-08-04T20:08:12;25.80;83.80
64869;DHT22;51349;52.424;10.840;2022-08-04T20:13:13;25.60;84.30
64869;DHT22;51349;52.424;10.840;2022-08-04T20:18:14;25.60;84.50
64869;DHT22;51349;52.424;10.840;2022-08-04T20:23:14;25.40;85.30
64869;DHT22;51349;52.424;10.840;2022-08-04T20:28:15;25.20;86.60
64869;DHT22;51349;52.424;10.840;2022-08-04T20:33:15;25.20;87.00
64869;DHT22;51349;52.424;10.840;2022-08-04T20:38:16;25.10;87.60
64869;DHT22;51349;52.424;10.840;2022-08-04T20:43:17;25.00;87.80
64869;DHT22;51349;52.424;10.840;2022-08-04T20:48:19;24.90;87.90
64869;DHT22;51349;52.424;10.840;2022-08-04T20:53:20;24.80;88.80
64869;DHT22;51349;52.424;10.840;2022-08-04T20:58:21;24.70;89.20
64869;DHT22;51349;52.424;10.840;2022-08-04T21:03:22;24.70;89.40
64869;DHT22;51349;52.424;10.840;2022-08-04T21:08:22;24.50;89.80
64869;DHT22;51349;52.424;10.840;2022-08-04T21:13:23;24.50;90.30
64869;DHT22;51349;52.424;10.840;2022-08-04T21:18:23;24.40;90.80
64869;DHT22;51349;52.424;10.840;2022-08-04T21:23:24;24.40;90.80
64869;DHT22;51349;52.424;10.840;2022-08-04T21:28:25;24.30;91.20
64869;DHT22;51349;52.424;10.840;2022-08-04T21:33:27;24.10;91.50
64869;DHT22;51349;52.424;10.840;2022-08-04T21:38:27;24.20;92.00
64869;DHT22;51349;52.424;10.840;2022-08-04T21:43:28;24.00;92.40
64869;DHT22;51349;52.424;10.840;2022-08-04T21:48:29;23.90;92.40
64869;DHT22;51349;52.424;10.840;2022-08-04T21:53:30;23.90;93.10
64869;DHT22;51349;52.424;10.840;2022-08-04T21:58:30;23.80;93.00
64869;DHT22;51349;52.424;10.840;2022-08-04T22:03:31;23.70;93.60
64869;DHT22;51349;52.424;10.840;2022-08-04T22:08:31;23.30;94.80
64869;DHT22;51349;52.424;10.840;2022-08-04T22:13:34;23.30;94.70
64869;DHT22;51349;52.424;10.840;2022-08-04T22:18:35;23.00;95.90
64869;DHT22;51349;52.424;10.840;2022-08-04T22:23:35;22.90;96.70
64869;DHT22;51349;52.424;10.840;2022-08-04T22:28:36;23.00;96.30
64869;DHT22;51349;52.424;10.840;2022-08-04T22:33:37;23.10;97.00
64869;DHT22;51349;52.424;10.840;2022-08-04T22:38:38;23.10;96.50
64869;DHT22;51349;52.424;10.840;2022-08-04T22:43:39;23.00;96.60
64869;DHT22;51349;52.424;10.840;2022-08-04T22:48:40;23.00;96.60
64869;DHT22;51349;52.424;10.840;2022-08-04T22:53:41;23.10;96.70
64869;DHT22;51349;52.424;10.840;2022-08-04T22:58:43;22.90;97.20
64869;DHT22;51349;52.424;10.840;2022-08-04T23:03:44;22.80;98.30
64869;DHT22;51349;52.424;10.840;2022-08-04T23:08:45;22.80;97.60
64869;DHT22;51349;52.424;10.840;2022-08-04T23:13:45;22.80;97.60
64869;DHT22;51349;52.424;10.840;2022-08-04T23:18:46;22.80;98.20
64869;DHT22;51349;52.424;10.840;2022-08-04T23:23:46;22.70;98.30
64869;DHT22;51349;52.424;10.840;2022-08-04T23:28:47;22.70;99.70
64869;DHT22;51349;52.424;10.840;2022-08-04T23:33:47;22.60;99.90
64869;DHT22;51349;52.424;10.840;2022-08-04T23:38:48;22.50;99.90
64869;DHT22;51349;52.424;10.840;2022-08-04T23:43:49;22.30;99.90
64869;DHT22;51349;52.424;10.840;2022-08-04T23:48:49;22.10;99.90
64869;DHT22;51349;52.424;10.840;2022-08-04T23:53:51;22.10;99.90
64869;DHT22;51349;52.424;10.840;2022-08-04T23:58:52;22.20;99.90
